Aviation Digital Data Service (ADDS)

Output produced by METARs form (0033 UTC 29 July 2014)
found at http://aviationweather.gov/adds/metars/
 
KLCH 282353Z 29004KT 9SM CLR 33/23 A3000 RMK AO2 SLP165 T03280228 10350 20328 55016